Time;durP1;ratioP1;P1;durP2;ratioP2;P2;SDS_P1;SDS_P2;PMS_P1;PMS_P2;Temp;Humidity;BMP_temperature;BMP_pressure;BME280_temperature;BME280_humidity;BME280_pressure;Samples;Min_cycle;Max_cycle;Signal;HPM_P1;HPM_P2
2022/06/25 00:02:05;;;;;;;15.27;14.03;;;22.90;77.00;;;25.46;56.62;100826.88;5092860;28;20213;-62
2022/06/25 00:07:20;;;;;;;15.97;14.47;;;22.70;77.40;;;25.36;57.33;100826.06;5094113;28;20207;-64
2022/06/25 00:09:47;;;;;;;15.80;14.27;;;22.70;77.70;;;25.30;57.33;100825.22;5093661;28;20195;-63
2022/06/25 00:12:33;;;;;;;16.07;14.43;;;22.60;77.90;;;25.28;57.42;100826.59;5094436;28;20578;-62
2022/06/25 00:15:01;;;;;;;16.00;14.43;;;22.60;78.30;;;25.23;57.11;100819.31;5094240;28;20200;-63
2022/06/25 00:17:29;;;;;;;14.50;13.20;;;22.50;78.40;;;25.21;57.57;100821.47;5094178;28;20528;-63
2022/06/25 00:19:57;;;;;;;14.43;13.20;;;22.50;78.30;;;25.20;57.71;100825.22;5094071;28;20215;-63
2022/06/25 00:22:26;;;;;;;13.33;12.30;;;22.50;78.40;;;25.18;57.02;100819.31;5093655;28;20234;-63
2022/06/25 00:24:54;;;;;;;14.47;13.17;;;22.50;78.40;;;25.19;57.11;100820.13;5093581;28;20189;-63
2022/06/25 00:27:21;;;;;;;14.17;13.00;;;22.50;78.50;;;25.19;57.39;100826.31;5093163;28;20205;-64
2022/06/25 00:29:49;;;;;;;14.00;12.70;;;22.60;78.60;;;25.20;57.13;100825.22;5093192;28;20630;-63
2022/06/25 00:32:17;;;;;;;14.43;13.10;;;22.50;78.50;;;25.19;56.89;100834.41;5093137;28;20205;-63
2022/06/25 00:34:44;;;;;;;14.23;12.93;;;22.50;78.40;;;25.16;57.48;100832.25;5093215;28;20189;-63
2022/06/25 00:37:12;;;;;;;11.70;10.70;;;22.50;78.20;;;25.16;57.56;100834.13;5093274;28;20260;-63
2022/06/25 00:39:43;;;;;;;13.97;12.77;;;22.50;78.10;;;25.16;56.91;100834.94;5093282;28;20195;-62
2022/06/25 00:42:13;;;;;;;13.70;12.50;;;22.50;78.40;;;25.18;57.35;100838.16;5092831;28;20211;-60
2022/06/25 00:44:40;;;;;;;15.17;13.73;;;22.50;78.40;;;25.19;57.62;100834.41;5092879;28;20647;-63
2022/06/25 00:47:11;;;;;;;15.63;14.33;;;22.50;78.40;;;25.20;56.90;100840.63;5093451;28;20197;-62
2022/06/25 00:49:40;;;;;;;15.00;13.70;;;22.50;78.40;;;25.19;56.75;100841.69;5093684;28;20180;-62
2022/06/25 00:52:12;;;;;;;14.63;13.10;;;22.50;78.40;;;25.18;57.60;100837.34;5092708;28;20227;-63
2022/06/25 00:54:50;;;;;;;15.17;13.80;;;22.50;78.60;;;25.15;57.16;100844.09;5093227;28;20219;-64
2022/06/25 00:57:21;;;;;;;15.30;14.10;;;22.50;78.60;;;25.18;57.58;100843.56;5092670;28;20234;-63
2022/06/25 00:59:52;;;;;;;16.37;14.87;;;22.50;78.60;;;25.17;57.62;100846.53;5092651;28;20538;-63
2022/06/25 01:02:20;;;;;;;16.40;14.97;;;22.50;78.60;;;25.17;57.58;100857.31;5092803;28;20223;-63
2022/06/25 01:04:48;;;;;;;16.60;15.23;;;22.50;78.60;;;25.17;57.52;100852.72;5093507;27;20212;-63
2022/06/25 01:07:17;;;;;;;14.53;13.23;;;22.50;78.50;;;25.15;57.00;100871.03;5093087;28;20217;-63
2022/06/25 01:09:48;;;;;;;14.43;13.23;;;22.50;78.50;;;25.13;56.72;100875.06;5094318;28;20189;-63
2022/06/25 01:12:16;;;;;;;15.50;14.17;;;22.50;78.40;;;25.11;57.38;100880.72;5092771;28;20215;-62
2022/06/25 01:14:43;;;;;;;15.67;14.27;;;22.50;78.50;;;25.10;57.24;100881.81;5092368;28;20294;-63
2022/06/25 01:17:11;;;;;;;13.63;12.30;;;22.50;78.60;;;25.11;57.31;100891.50;5092237;28;20557;-62
2022/06/25 01:19:38;;;;;;;14.60;13.40;;;22.50;78.70;;;25.11;56.86;100896.91;5092335;28;20195;-61
2022/06/25 01:22:08;;;;;;;16.27;14.73;;;22.50;78.50;;;25.07;56.91;100895.81;5091799;28;20208;-60
2022/06/25 01:24:36;;;;;;;18.03;16.53;;;22.50;78.60;;;25.04;57.78;100890.97;5092432;28;20244;-62
2022/06/25 01:27:13;;;;;;;13.30;12.00;;;22.50;78.60;;;24.99;56.99;100904.41;5125056;27;20265;-63
2022/06/25 01:29:40;;;;;;;17.57;16.17;;;22.50;78.60;;;25.02;57.35;100898.50;5092963;28;20196;-62
2022/06/25 01:32:10;;;;;;;17.47;15.97;;;22.50;78.60;;;25.02;57.59;100897.69;5092396;28;20709;-64
2022/06/25 01:34:37;;;;;;;20.77;18.83;;;22.40;78.60;;;24.98;57.24;100913.59;5092947;28;20288;-64
2022/06/25 01:37:06;;;;;;;20.83;19.03;;;22.40;78.70;;;24.91;57.79;100912.22;5093258;28;20188;-60
2022/06/25 01:39:34;;;;;;;22.57;20.33;;;22.40;79.00;;;24.77;58.79;100923.47;5092917;28;20193;-63
2022/06/25 01:42:03;;;;;;;20.40;18.70;;;22.40;79.40;;;24.65;58.71;100924.75;5091681;28;20212;-62
2022/06/25 01:44:34;;;;;;;21.10;19.33;;;22.30;79.40;;;24.55;58.77;100925.50;5093019;28;20188;-63
2022/06/25 01:47:02;;;;;;;18.07;16.47;;;22.20;79.60;;;24.50;59.16;100930.03;5093113;28;20206;-61
2022/06/25 01:49:29;;;;;;;21.57;19.57;;;22.10;80.00;;;24.47;59.25;100933.25;5092567;28;20224;-62
2022/06/25 01:51:56;;;;;;;22.17;20.17;;;22.10;80.20;;;24.44;59.24;100934.59;5091604;28;20220;-63
2022/06/25 01:54:25;;;;;;;19.97;17.90;;;22.00;80.50;;;24.39;59.26;100939.94;5093511;28;20192;-62
2022/06/25 01:56:53;;;;;;;20.40;18.70;;;22.00;80.40;;;24.35;59.82;100940.72;5093327;28;20190;-62
2022/06/25 01:59:20;;;;;;;21.90;20.00;;;21.90;80.70;;;24.15;59.92;100942.22;5092989;28;20266;-62
2022/06/25 02:01:47;;;;;;;19.63;17.90;;;21.80;81.30;;;24.02;60.12;100939.94;5092498;28;20215;-63
2022/06/25 02:04:15;;;;;;;18.70;17.13;;;21.70;81.10;;;24.01;60.65;100945.59;5092864;28;20192;-62
2022/06/25 02:06:42;;;;;;;17.67;16.13;;;21.70;81.60;;;24.06;60.26;100946.47;5092850;28;20203;-62
2022/06/25 02:09:10;;;;;;;17.00;15.40;;;21.60;81.70;;;24.12;60.16;100942.75;5093131;28;20216;-62
2022/06/25 02:11:38;;;;;;;20.50;18.67;;;21.60;82.80;;;24.14;60.46;100951.38;5092443;28;20366;-61
2022/06/25 02:14:06;;;;;;;21.73;19.77;;;21.70;82.30;;;24.11;60.44;100941.13;5093098;28;20196;-62
2022/06/25 02:16:33;;;;;;;16.57;15.17;;;21.60;82.20;;;24.08;60.22;100947.00;5093247;28;20192;-62
2022/06/25 02:19:00;;;;;;;17.50;16.00;;;21.60;82.10;;;24.12;60.21;100942.75;5092846;28;20573;-62
2022/06/25 02:21:29;;;;;;;17.83;15.93;;;21.60;82.40;;;24.17;60.32;100940.09;5092722;28;20250;-63
2022/06/25 02:23:57;;;;;;;16.33;14.90;;;21.60;82.30;;;24.23;59.87;100932.84;5092592;28;20193;-62
2022/06/25 02:26:24;;;;;;;17.77;16.17;;;21.60;82.20;;;24.26;59.87;100931.53;5094589;28;20199;-64
2022/06/25 02:28:53;;;;;;;14.50;13.30;;;21.70;82.20;;;24.29;60.02;100921.06;5097100;28;20216;-63
2022/06/25 02:31:20;;;;;;;14.63;13.33;;;21.70;81.90;;;24.31;59.83;100923.47;5096670;28;20666;-63
2022/06/25 02:33:48;;;;;;;13.23;12.00;;;21.70;81.70;;;24.32;59.37;100930.50;5096796;28;20683;-62
2022/06/25 02:36:15;;;;;;;13.40;12.30;;;21.70;81.50;;;24.31;59.32;100928.88;5096878;28;20197;-62
2022/06/25 02:38:43;;;;;;;14.50;13.30;;;21.70;81.20;;;24.32;59.62;100933.97;5096871;28;20184;-62
2022/06/25 02:41:10;;;;;;;14.77;13.57;;;21.80;81.60;;;24.38;59.14;100934.81;5096388;28;20208;-63
2022/06/25 02:43:37;;;;;;;13.13;12.07;;;21.80;81.50;;;24.40;59.04;100938.88;5096806;28;20192;-64
2022/06/25 02:46:07;;;;;;;17.43;16.03;;;21.80;81.50;;;24.45;59.38;100946.16;5096796;28;20627;-63
2022/06/25 02:48:34;;;;;;;14.23;13.03;;;21.80;81.60;;;24.42;59.21;100946.69;5096480;28;20212;-62
2022/06/25 02:51:02;;;;;;;16.00;14.67;;;21.80;81.50;;;24.45;59.58;100956.94;5096045;28;20220;-63
2022/06/25 02:53:29;;;;;;;18.77;17.17;;;21.90;81.70;;;24.48;59.66;100956.41;5096458;28;20189;-62
2022/06/25 02:58:54;;;;;;;19.00;17.40;;;21.90;81.60;;;24.48;59.30;100959.09;5096387;28;20192;-64
2022/06/25 03:01:26;;;;;;;17.13;15.53;;;21.90;81.70;;;24.46;58.94;100953.97;5095533;28;20219;-62
2022/06/25 03:03:54;;;;;;;16.17;14.77;;;21.90;81.60;;;24.48;59.32;100954.53;5096429;28;20196;-63
2022/06/25 03:06:22;;;;;;;17.60;16.10;;;21.90;81.60;;;24.49;59.00;100948.06;5096477;28;20189;-64
2022/06/25 03:08:50;;;;;;;17.10;15.70;;;21.90;81.60;;;24.49;59.47;100955.34;5096405;28;20220;-63
2022/06/25 03:11:18;;;;;;;16.57;15.17;;;21.90;81.60;;;24.52;59.04;100957.50;5095509;28;20204;-61
2022/06/25 03:13:45;;;;;;;19.70;18.00;;;21.90;81.70;;;24.52;59.73;100949.44;5096776;28;20189;-63
2022/06/25 03:16:13;;;;;;;15.20;13.87;;;21.90;81.80;;;24.52;58.98;100952.13;5096395;28;20238;-63
2022/06/25 03:18:42;;;;;;;15.97;14.47;;;21.90;81.60;;;24.54;58.76;100956.19;5096248;28;20208;-63
2022/06/25 03:21:09;;;;;;;20.00;18.10;;;21.90;81.70;;;24.56;59.12;100958.59;5095853;28;20210;-63
2022/06/25 03:23:37;;;;;;;19.03;17.33;;;21.90;81.80;;;24.51;59.51;100961.28;5095082;28;20283;-63
2022/06/25 03:26:04;;;;;;;20.97;19.10;;;21.90;81.50;;;24.46;59.00;100964.72;5096114;28;20189;-64
2022/06/25 03:28:31;;;;;;;19.57;17.87;;;21.90;81.70;;;24.42;59.40;100963.66;5096478;28;20553;-63
2022/06/25 03:30:59;;;;;;;20.33;18.43;;;21.90;81.60;;;24.42;59.83;100965.53;5097428;28;20219;-63
2022/06/25 03:33:26;;;;;;;20.93;19.13;;;21.90;81.80;;;24.42;59.40;100965.53;5098181;28;20199;-62
2022/06/25 03:35:55;;;;;;;17.10;15.63;;;21.90;82.00;;;24.42;59.18;100969.03;5097490;28;20543;-62
2022/06/25 03:38:22;;;;;;;20.67;18.77;;;21.90;82.00;;;24.39;59.48;100974.91;5097400;28;20188;-63
2022/06/25 03:40:50;;;;;;;20.60;18.80;;;21.80;82.10;;;24.30;59.97;100981.06;5096866;28;20301;-62
2022/06/25 03:43:37;;;;;;;18.80;17.00;;;21.80;82.40;;;24.22;60.27;100979.69;5094406;28;20196;-62
2022/06/25 03:46:05;;;;;;;18.80;17.10;;;21.70;82.10;;;24.19;60.41;100980.19;5095785;28;20188;-63
2022/06/25 03:48:33;;;;;;;18.93;17.33;;;21.70;82.60;;;24.13;60.51;100981.19;5095567;28;20697;-63
2022/06/25 03:51:02;;;;;;;20.33;18.60;;;21.70;82.80;;;24.08;60.68;100984.66;5093970;28;20224;-61
2022/06/25 03:53:29;;;;;;;18.20;16.70;;;21.70;83.00;;;24.00;60.91;100979.75;5095358;28;20271;-62
2022/06/25 03:55:59;;;;;;;16.30;14.80;;;21.60;82.80;;;24.00;60.73;100990.50;5095891;28;20586;-62
2022/06/25 03:58:26;;;;;;;15.20;13.80;;;21.50;83.00;;;24.02;60.81;100988.38;5095498;28;20189;-62
2022/06/25 04:00:54;;;;;;;15.67;14.37;;;21.60;83.20;;;24.09;60.64;100996.25;5094931;28;20243;-63
2022/06/25 04:03:21;;;;;;;16.00;14.63;;;21.60;83.40;;;24.14;60.30;100993.59;5096149;28;20203;-62
2022/06/25 04:05:48;;;;;;;17.90;16.30;;;21.60;83.10;;;24.11;60.59;100994.91;5094447;28;20203;-63
2022/06/25 04:08:17;;;;;;;17.63;16.13;;;21.60;83.00;;;24.01;60.52;100992.09;5095505;28;20212;-62
2022/06/25 04:10:45;;;;;;;15.77;14.47;;;21.60;82.80;;;23.92;60.68;100988.28;5095002;28;20263;-62
2022/06/25 04:13:12;;;;;;;16.80;15.40;;;21.50;82.60;;;23.86;60.87;100996.56;5095594;28;20188;-63
2022/06/25 04:15:40;;;;;;;15.87;14.57;;;21.50;82.90;;;23.77;61.10;100998.88;5094991;28;20191;-63
2022/06/25 04:18:08;;;;;;;16.10;14.70;;;21.40;82.80;;;23.72;61.12;100995.34;5095276;28;20379;-63
2022/06/25 04:20:35;;;;;;;16.43;15.03;;;21.40;83.20;;;23.69;61.33;100995.84;5094662;28;20191;-63
2022/06/25 04:23:02;;;;;;;15.00;13.70;;;21.30;83.20;;;23.72;61.42;100993.50;5095352;28;20203;-63
2022/06/25 04:25:32;;;;;;;15.27;13.87;;;21.30;83.10;;;23.71;60.88;100994.53;5095397;28;20235;-63
2022/06/25 04:30:45;;;;;;;15.43;14.13;;;21.30;82.70;;;23.68;60.27;100996.94;5094656;28;20197;-64
2022/06/25 04:33:13;;;;;;;15.50;14.20;;;21.30;82.30;;;23.69;60.34;101001.22;5094804;28;20196;-62
2022/06/25 04:35:40;;;;;;;16.77;15.37;;;21.30;82.20;;;23.69;60.50;101002.06;5095317;28;20185;-62
2022/06/25 04:38:08;;;;;;;16.87;15.50;;;21.30;82.90;;;23.70;59.90;100992.91;5094778;28;20196;-63
2022/06/25 04:40:37;;;;;;;16.03;14.53;;;21.20;81.90;;;23.71;60.07;100999.09;5094452;28;20271;-63
2022/06/25 04:43:04;;;;;;;17.93;16.30;;;21.30;81.90;;;23.71;59.99;100999.91;5094922;28;20199;-62
2022/06/25 04:45:31;;;;;;;19.13;17.50;;;21.30;81.70;;;23.73;60.01;100997.78;5094911;28;20184;-63
2022/06/25 04:48:03;;;;;;;16.70;15.07;;;21.30;81.70;;;23.74;59.75;100996.72;5094561;28;20590;-63
2022/06/25 04:50:30;;;;;;;19.37;17.63;;;21.30;81.50;;;23.79;59.84;101002.16;5093486;28;20530;-64
2022/06/25 04:52:58;;;;;;;22.83;17.33;;;21.40;81.60;;;23.79;59.74;101004.84;5094722;28;20188;-63
2022/06/25 04:55:26;;;;;;;17.47;15.87;;;21.40;81.40;;;23.88;59.19;101005.19;5094746;28;20541;-63
2022/06/25 04:57:55;;;;;;;19.93;18.13;;;21.40;82.10;;;23.91;59.19;101004.69;5094666;28;20196;-63
2022/06/25 05:00:22;;;;;;;18.97;17.07;;;21.50;81.10;;;23.97;59.12;101007.16;5094338;28;20176;-62
2022/06/25 05:02:49;;;;;;;19.93;18.10;;;21.60;81.10;;;24.08;58.91;101008.88;5094743;28;20212;-64
2022/06/25 05:05:17;;;;;;;17.77;16.07;;;21.60;81.70;;;24.19;58.56;101010.59;5094299;28;20199;-64
2022/06/25 05:07:44;;;;;;;13.50;12.30;;;21.70;80.80;;;24.35;58.62;101013.38;5094267;28;20665;-63
2022/06/25 05:10:12;;;;;;;18.83;17.23;;;21.70;80.70;;;24.48;58.28;101012.94;5094626;28;20612;-63
2022/06/25 05:15:27;;;;;;;14.30;13.10;;;21.90;79.90;;;24.70;57.68;101005.53;5094556;28;20519;-63
2022/06/25 05:17:54;;;;;;;14.60;13.40;;;22.00;79.70;;;24.82;57.05;101006.16;5094120;28;20188;-61
2022/06/25 05:20:22;;;;;;;17.33;15.67;;;22.10;79.50;;;24.92;56.99;101008.91;5093489;28;20238;-63
2022/06/25 05:22:50;;;;;;;19.00;17.10;;;22.20;79.00;;;24.97;56.48;101008.94;5093595;28;20220;-62
2022/06/25 05:25:18;;;;;;;18.63;16.87;;;22.30;78.40;;;25.00;56.43;101011.13;5094117;28;20192;-62
2022/06/25 05:27:45;;;;;;;18.57;16.87;;;22.30;77.70;;;25.00;56.19;101013.81;5092800;28;20634;-62
2022/06/25 05:30:13;;;;;;;20.07;18.37;;;22.40;77.40;;;24.90;56.24;101013.75;5093017;28;20212;-64
2022/06/25 05:32:42;;;;;;;18.10;16.50;;;22.40;77.00;;;24.85;56.02;101022.63;5092790;28;20208;-62
2022/06/25 05:35:09;;;;;;;21.30;19.40;;;22.50;77.00;;;24.85;56.21;101021.81;5093422;28;20193;-63
2022/06/25 05:37:37;;;;;;;20.57;18.77;;;22.50;76.90;;;24.85;56.52;101021.81;5093181;28;20562;-63
2022/06/25 05:40:06;;;;;;;19.80;18.00;;;22.50;77.00;;;24.83;56.78;101018.56;5093662;28;20187;-62
2022/06/25 05:42:34;;;;;;;19.23;17.50;;;22.50;77.10;;;24.86;56.21;101028.81;5093411;28;20212;-62
2022/06/25 05:45:01;;;;;;;19.57;17.57;;;22.50;77.10;;;24.90;56.80;101029.91;5093773;28;20188;-63
2022/06/25 05:47:29;;;;;;;20.13;18.23;;;22.50;77.10;;;24.98;56.67;101032.13;5093792;28;20580;-64
2022/06/25 05:49:58;;;;;;;19.70;17.90;;;22.50;77.90;;;25.05;56.08;101032.69;5093632;28;20209;-63
2022/06/25 05:52:26;;;;;;;19.00;17.10;;;22.60;77.00;;;25.06;55.37;101033.47;5092368;28;20226;-63
2022/06/25 05:54:53;;;;;;;17.53;15.83;;;22.60;77.30;;;25.08;55.38;101040.22;5093410;28;20188;-62
2022/06/25 05:57:21;;;;;;;17.83;16.17;;;22.60;77.10;;;25.17;55.92;101041.38;5093045;28;20199;-62
2022/06/25 05:59:48;;;;;;;15.10;13.80;;;22.70;76.40;;;25.26;55.25;101045.19;5092629;28;20184;-62
2022/06/25 06:02:16;;;;;;;15.20;13.80;;;22.80;75.60;;;25.39;55.19;101035.75;5092138;28;20220;-63
2022/06/25 06:04:44;;;;;;;13.20;12.00;;;22.90;75.70;;;25.50;54.22;101051.75;5092959;28;20681;-63
2022/06/25 06:07:13;;;;;;;11.83;10.73;;;22.90;75.30;;;25.64;53.61;101056.63;5093318;28;20197;-62
2022/06/25 06:09:41;;;;;;;11.57;9.30;;;23.00;74.80;;;25.77;53.63;101053.44;5092652;28;20693;-62
2022/06/25 06:12:08;;;;;;;11.80;9.17;;;23.10;74.20;;;25.87;53.40;101056.13;5092464;28;20212;-62
2022/06/25 06:14:36;;;;;;;8.83;7.37;;;23.20;73.60;;;25.98;52.64;101065.88;5093160;28;20188;-63
2022/06/25 06:17:04;;;;;;;8.03;7.33;;;23.30;73.10;;;26.06;51.98;101060.75;5093319;28;20184;-63
2022/06/25 06:19:31;;;;;;;6.93;6.17;;;23.30;72.40;;;26.15;52.12;101064.56;5092913;28;20291;-63
2022/06/25 06:21:59;;;;;;;8.10;7.30;;;23.40;72.00;;;26.22;50.84;101064.28;5092676;28;20216;-61
2022/06/25 06:24:27;;;;;;;7.17;6.47;;;23.50;71.30;;;26.29;51.22;101064.84;5092851;28;20215;-62
2022/06/25 06:26:55;;;;;;;5.83;4.53;;;23.60;70.80;;;26.38;50.61;101063.22;5092980;28;20185;-62
2022/06/25 06:29:22;;;;;;;6.40;5.30;;;23.70;70.70;;;26.48;50.62;101052.41;5092492;28;20235;-63
2022/06/25 06:31:49;;;;;;;5.27;4.87;;;23.70;70.00;;;26.58;49.97;101056.97;5091564;28;20216;-63
2022/06/25 06:34:17;;;;;;;6.50;5.30;;;23.80;69.40;;;26.57;48.54;101061.59;5092706;28;20581;-63
2022/06/25 06:36:44;;;;;;;4.27;3.97;;;23.90;67.60;;;26.58;48.90;101056.97;5093014;28;20190;-63
2022/06/25 06:39:12;;;;;;;4.53;4.13;;;23.90;67.70;;;26.66;49.29;101059.94;5092798;28;20207;-64
2022/06/25 06:41:40;;;;;;;4.13;3.83;;;24.00;67.90;;;26.76;48.77;101059.97;5091956;28;20690;-63
2022/06/25 06:44:08;;;;;;;4.57;4.17;;;24.00;67.80;;;26.82;48.61;101063.44;5092820;28;20601;-62
2022/06/25 06:46:39;;;;;;;4.43;4.03;;;24.10;67.30;;;26.91;48.29;101055.59;5092419;28;20267;-65
2022/06/25 06:49:07;;;;;;;5.70;5.20;;;24.20;67.10;;;26.95;48.14;101065.59;5092626;28;20925;-63
2022/06/25 06:51:37;;;;;;;4.50;3.50;;;24.20;66.30;;;27.00;48.10;101060.19;5090979;28;20633;-63
2022/06/25 06:54:04;;;;;;;4.87;4.43;;;24.30;66.40;;;27.02;47.53;101068.81;5093030;28;20189;-62
2022/06/25 06:56:32;;;;;;;4.97;4.30;;;24.30;65.50;;;27.03;47.18;101072.34;5092623;28;20188;-64
2022/06/25 06:59:00;;;;;;;4.70;4.30;;;24.40;65.60;;;27.11;47.04;101082.56;5092952;28;20191;-63
2022/06/25 07:01:28;;;;;;;4.70;4.10;;;24.50;65.40;;;27.15;46.92;101080.91;5092132;28;20216;-62
2022/06/25 07:03:55;;;;;;;6.20;4.47;;;24.50;64.60;;;27.03;47.13;101088.56;5091482;28;20524;-63
2022/06/25 07:06:23;;;;;;;5.33;4.83;;;24.50;64.10;;;27.00;47.12;101089.09;5092863;28;20200;-62
2022/06/25 07:08:50;;;;;;;4.20;3.80;;;24.60;64.20;;;27.10;47.21;101094.47;5092570;28;20196;-63
2022/06/25 07:11:30;;;;;;;3.47;3.00;;;24.60;64.40;;;27.24;46.79;101092.81;5092069;28;20693;-65
2022/06/25 07:14:01;;;;;;;5.40;3.10;;;24.70;64.30;;;27.37;46.71;101090.34;5095909;28;20219;-62
2022/06/25 07:16:29;;;;;;;3.80;3.40;;;24.70;64.30;;;27.51;46.56;101099.47;5096433;28;20196;-62
2022/06/25 07:18:59;;;;;;;4.67;3.90;;;24.80;64.20;;;27.66;45.85;101095.88;5111990;28;20184;-64
2022/06/25 07:21:28;;;;;;;4.10;3.27;;;24.90;63.70;;;27.71;44.99;101095.84;5095915;28;20204;-64
2022/06/25 07:23:56;;;;;;;3.80;2.73;;;25.00;62.40;;;27.78;45.08;101093.66;5095328;28;20207;-63
2022/06/25 07:26:25;;;;;;;3.40;2.70;;;25.10;62.40;;;27.89;45.16;101095.19;5096792;28;20610;-63
2022/06/25 07:28:54;;;;;;;2.40;2.20;;;25.20;62.50;;;28.00;45.14;101090.56;5112026;28;20223;-64
2022/06/25 07:31:22;;;;;;;3.43;3.10;;;25.20;62.20;;;28.09;44.56;101091.59;5095283;28;20220;-64
2022/06/25 07:33:50;;;;;;;3.87;3.37;;;25.30;61.40;;;28.12;44.29;101099.16;5095822;28;20200;-63
2022/06/25 07:36:17;;;;;;;4.73;3.23;;;25.40;61.20;;;28.21;44.56;101091.22;5096000;28;20197;-63
2022/06/25 07:38:45;;;;;;;3.30;3.00;;;25.50;61.40;;;28.28;44.25;101097.13;5095925;28;20714;-64
2022/06/25 07:41:12;;;;;;;3.60;3.30;;;25.60;60.80;;;28.33;44.36;101105.22;5094281;28;20689;-64
2022/06/25 07:43:40;;;;;;;3.90;3.50;;;25.60;60.60;;;28.37;43.94;101100.84;5096140;28;20526;-64
2022/06/25 07:46:09;;;;;;;4.90;3.17;;;25.70;60.50;;;28.39;43.54;101099.47;5095827;28;20554;-64
2022/06/25 07:48:38;;;;;;;3.43;3.13;;;25.70;59.60;;;28.42;43.00;101106.22;5096701;28;20185;-64
2022/06/25 07:53:52;;;;;;;4.23;3.73;;;25.90;59.60;;;28.46;43.17;101104.53;5112417;28;20203;-64
2022/06/25 07:56:20;;;;;;;4.53;3.37;;;25.90;59.20;;;28.52;43.65;101098.00;5109165;28;20188;-63
2022/06/25 07:58:47;;;;;;;6.10;4.20;;;26.00;59.50;;;28.58;43.01;101102.28;5095488;28;20197;-61
2022/06/25 08:01:15;;;;;;;3.60;2.80;;;26.00;59.00;;;28.63;43.30;101104.97;5094887;28;20201;-64
2022/06/25 08:03:44;;;;;;;3.17;2.80;;;26.00;59.00;;;28.73;42.91;101102.97;5095407;28;20681;-64
2022/06/25 08:06:12;;;;;;;4.07;3.60;;;26.10;59.10;;;28.77;42.37;101105.91;5095215;28;20192;-63
2022/06/25 08:08:40;;;;;;;4.13;3.83;;;26.20;58.20;;;28.78;42.56;101110.25;5094991;28;20240;-63
2022/06/25 08:11:08;;;;;;;4.80;3.60;;;26.20;57.90;;;28.84;41.91;101107.19;5094788;28;20227;-63
2022/06/25 08:13:37;;;;;;;3.90;3.50;;;26.30;57.70;;;28.95;42.26;101107.91;5094891;28;20184;-62
2022/06/25 08:16:05;;;;;;;4.30;3.90;;;26.40;57.90;;;29.05;41.52;101117.84;5095257;28;20188;-63
2022/06/25 08:18:32;;;;;;;3.13;2.83;;;26.50;57.30;;;29.27;41.65;101108.09;5094520;28;20573;-63
2022/06/25 08:21:01;;;;;;;4.67;3.37;;;26.60;57.70;;;29.97;41.18;101114.53;5094688;28;20619;-63
2022/06/25 08:23:29;;;;;;;4.20;3.80;;;26.70;57.90;;;31.05;38.82;101123.34;5094250;28;20271;-64
2022/06/25 08:25:56;;;;;;;3.70;2.90;;;27.00;57.30;;;32.34;37.44;101117.28;5094298;28;20276;-64
2022/06/25 08:28:24;;;;;;;3.83;3.53;;;27.50;57.20;;;33.57;33.81;101118.06;5094615;28;20189;-63
2022/06/25 08:30:51;;;;;;;3.57;2.60;;;28.30;53.40;;;34.73;32.64;101115.13;5093859;28;20227;-63
2022/06/25 08:33:18;;;;;;;3.60;2.97;;;29.00;53.20;;;36.06;31.29;101118.16;5093654;28;20332;-64
2022/06/25 08:35:46;;;;;;;2.83;2.63;;;29.80;52.10;;;37.40;30.01;101113.72;5094383;28;20271;-64
2022/06/25 08:38:16;;;;;;;4.35;2.95;;;30.70;50.10;;;38.37;28.33;101119.78;5094917;28;20578;-64
2022/06/25 08:40:44;;;;;;;2.92;2.63;;;31.50;47.70;;;39.07;26.08;101121.63;5094249;28;20185;-63
2022/06/25 08:43:11;;;;;;;4.22;2.90;;;32.30;44.00;;;39.11;25.04;101118.94;5093552;28;20204;-63
2022/06/25 08:45:40;;;;;;;2.97;2.78;;;32.90;40.40;;;38.37;25.22;101114.28;5094657;28;20600;-63
2022/06/25 08:48:15;;;;;;;4.57;3.50;;;33.20;38.70;;;37.20;27.09;101121.75;5094559;28;20193;-63
2022/06/25 08:50:44;;;;;;;4.22;2.63;;;33.20;38.90;;;36.23;28.39;101120.72;5093702;28;20223;-63
2022/06/25 08:53:14;;;;;;;3.00;2.70;;;32.90;40.00;;;35.56;29.03;101118.19;5094393;28;20219;-63
2022/06/25 08:55:44;;;;;;;2.97;2.60;;;32.60;39.70;;;34.96;29.67;101114.91;5094444;28;20543;-64
2022/06/25 08:58:13;;;;;;;3.35;3.03;;;32.10;40.30;;;34.52;30.12;101106.00;5094649;28;20195;-63
2022/06/25 09:00:43;;;;;;;4.17;2.60;;;31.70;41.10;;;35.15;29.68;101107.13;5093917;28;20562;-62
2022/06/25 09:03:11;;;;;;;2.90;2.70;;;31.50;42.40;;;36.23;28.77;101111.69;5094704;28;20623;-63
2022/06/25 09:05:41;;;;;;;7.82;3.10;;;31.60;43.00;;;36.70;28.45;101114.94;5093955;28;20189;-64
2022/06/25 09:08:14;;;;;;;3.55;2.50;;;31.80;42.10;;;36.51;28.00;101120.97;5082936;28;20201;-63
2022/06/25 09:10:45;;;;;;;2.35;2.20;;;32.00;42.00;;;36.50;28.54;101114.66;5094089;28;20295;-66
2022/06/25 09:13:14;;;;;;;3.03;2.83;;;32.10;41.60;;;36.51;28.33;101109.97;5093498;28;20203;-63
2022/06/25 09:15:45;;;;;;;3.53;3.00;;;32.10;40.80;;;36.20;28.77;101120.59;5093863;28;20188;-63
2022/06/25 09:18:14;;;;;;;3.00;2.70;;;32.10;40.90;;;36.30;29.06;101114.69;5093432;28;20536;-64
2022/06/25 09:20:57;;;;;;;4.72;2.83;;;32.10;41.50;;;37.41;27.50;101104.34;5093377;28;20195;-64
2022/06/25 09:23:27;;;;;;;3.45;2.22;;;32.30;41.60;;;38.80;26.63;101105.22;5093528;28;20198;-63
2022/06/25 09:26:08;;;;;;;3.05;2.35;;;32.60;41.50;;;40.39;24.33;101106.78;5108511;28;20200;-64
2022/06/25 09:28:38;;;;;;;2.50;2.30;;;33.40;40.00;;;41.00;21.57;101110.25;5092299;27;20232;-63
2022/06/25 09:31:07;;;;;;;2.72;2.47;;;34.00;36.10;;;41.20;22.35;101106.19;5091292;28;20216;-63
2022/06/25 09:33:37;;;;;;;2.85;2.55;;;34.60;36.00;;;41.45;21.94;101114.88;5092398;28;20273;-64
2022/06/25 09:36:08;;;;;;;4.13;2.28;;;35.00;34.70;;;41.88;19.75;101096.09;5091862;28;20596;-63
2022/06/25 09:38:48;;;;;;;2.97;2.10;;;35.30;31.40;;;42.17;19.65;101101.63;5092736;28;20227;-65
2022/06/25 09:41:16;;;;;;;2.97;2.67;;;35.70;30.80;;;42.51;19.98;101104.34;5091441;28;20208;-64
2022/06/25 09:43:47;;;;;;;4.85;2.45;;;36.10;31.00;;;42.85;18.84;101100.25;5090942;28;20195;-64
2022/06/25 09:46:15;;;;;;;2.65;2.45;;;36.40;30.30;;;43.19;19.46;101104.50;5091351;28;20622;-63
2022/06/25 09:48:44;;;;;;;2.45;2.28;;;36.70;30.60;;;43.84;19.32;101096.13;5091641;27;20184;-63
2022/06/25 09:51:15;;;;;;;3.53;2.92;;;37.10;30.10;;;44.13;17.54;101105.38;5091677;28;20220;-63
2022/06/25 09:53:50;;;;;;;2.95;2.28;;;37.40;28.70;;;43.62;18.34;101100.81;5092310;28;20265;-63
2022/06/25 09:56:21;;;;;;;4.68;2.22;;;37.50;28.00;;;43.82;18.46;101092.16;5092404;28;20218;-63
2022/06/25 09:58:49;;;;;;;2.00;1.90;;;37.60;28.50;;;44.37;18.76;101087.97;5092732;28;20196;-63
2022/06/25 10:01:18;;;;;;;1.83;1.73;;;37.70;28.70;;;45.17;17.08;101091.91;5091788;28;20200;-63
2022/06/25 10:03:47;;;;;;;2.60;2.40;;;38.00;27.70;;;45.91;17.12;101097.25;5091611;28;20185;-65
2022/06/25 10:06:18;;;;;;;2.33;1.98;;;38.40;27.90;;;46.21;16.45;101097.50;5090826;28;20236;-63
2022/06/25 10:08:50;;;;;;;4.53;2.42;;;38.60;26.70;;;45.66;15.82;101093.81;5092747;28;20195;-63
2022/06/25 10:11:19;;;;;;;2.00;1.90;;;38.70;25.40;;;45.01;15.88;101092.38;5107729;28;20224;-64
2022/06/25 10:13:49;;;;;;;4.40;2.20;;;38.70;25.70;;;44.76;16.08;101099.91;5093070;28;20193;-63
2022/06/25 10:16:18;;;;;;;2.15;1.95;;;38.60;25.70;;;44.26;16.90;101095.50;5092958;28;20204;-62
2022/06/25 10:18:48;;;;;;;2.78;1.77;;;38.50;25.60;;;42.75;17.02;101081.56;5092788;28;20196;-63
2022/06/25 10:21:16;;;;;;;2.63;2.00;;;38.10;24.70;;;41.26;18.37;101089.28;5091686;28;20220;-62
2022/06/25 10:23:50;;;;;;;2.55;1.98;;;37.50;25.30;;;41.02;18.79;101088.56;5091323;28;20218;-63
2022/06/25 10:26:19;;;;;;;2.40;2.17;;;36.90;26.30;;;41.45;18.46;101089.19;5092388;28;20287;-62